sensor_id;sensor_type;location;lat;lon;timestamp;P1;durP1;ratioP1;P2;durP2;ratioP2
58372;SDS011;44177;43.356;27.672;2022-10-16T00:00:43;5.70;;;5.10;;
58372;SDS011;44177;43.356;27.672;2022-10-16T00:03:09;5.97;;;4.82;;
58372;SDS011;44177;43.356;27.672;2022-10-16T00:05:39;4.72;;;4.32;;
58372;SDS011;44177;43.356;27.672;2022-10-16T00:08:07;5.55;;;4.63;;
58372;SDS011;44177;43.356;27.672;2022-10-16T00:10:35;5.45;;;4.93;;
58372;SDS011;44177;43.356;27.672;2022-10-16T00:13:01;5.72;;;4.75;;
58372;SDS011;44177;43.356;27.672;2022-10-16T00:15:26;6.72;;;5.13;;
58372;SDS011;44177;43.356;27.672;2022-10-16T00:17:52;5.55;;;4.78;;
58372;SDS011;44177;43.356;27.672;2022-10-16T00:20:17;5.18;;;4.68;;
58372;SDS011;44177;43.356;27.672;2022-10-16T00:22:43;6.65;;;5.03;;
58372;SDS011;44177;43.356;27.672;2022-10-16T00:25:08;5.13;;;4.35;;
58372;SDS011;44177;43.356;27.672;2022-10-16T00:27:34;4.95;;;4.28;;
58372;SDS011;44177;43.356;27.672;2022-10-16T00:30:00;5.90;;;4.93;;
58372;SDS011;44177;43.356;27.672;2022-10-16T00:32:25;6.10;;;4.70;;
58372;SDS011;44177;43.356;27.672;2022-10-16T00:34:51;5.55;;;5.05;;
58372;SDS011;44177;43.356;27.672;2022-10-16T00:37:18;6.25;;;4.85;;
58372;SDS011;44177;43.356;27.672;2022-10-16T00:39:43;5.88;;;4.85;;
58372;SDS011;44177;43.356;27.672;2022-10-16T00:42:11;5.00;;;4.50;;
58372;SDS011;44177;43.356;27.672;2022-10-16T00:44:45;5.20;;;4.43;;
58372;SDS011;44177;43.356;27.672;2022-10-16T00:47:13;5.15;;;4.32;;
58372;SDS011;44177;43.356;27.672;2022-10-16T00:49:43;6.03;;;4.57;;
58372;SDS011;44177;43.356;27.672;2022-10-16T00:52:09;6.60;;;4.85;;
58372;SDS011;44177;43.356;27.672;2022-10-16T00:54:35;5.35;;;4.50;;
58372;SDS011;44177;43.356;27.672;2022-10-16T00:57:01;5.93;;;4.30;;
58372;SDS011;44177;43.356;27.672;2022-10-16T00:59:31;5.45;;;4.65;;
58372;SDS011;44177;43.356;27.672;2022-10-16T01:01:59;4.88;;;4.38;;
58372;SDS011;44177;43.356;27.672;2022-10-16T01:04:25;4.70;;;4.20;;
58372;SDS011;44177;43.356;27.672;2022-10-16T01:06:58;4.82;;;4.32;;
58372;SDS011;44177;43.356;27.672;2022-10-16T01:21:28;5.13;;;4.18;;
58372;SDS011;44177;43.356;27.672;2022-10-16T01:32:28;4.60;;;4.00;;
58372;SDS011;44177;43.356;27.672;2022-10-16T01:37:31;4.70;;;4.22;;
58372;SDS011;44177;43.356;27.672;2022-10-16T01:40:00;6.03;;;4.30;;
58372;SDS011;44177;43.356;27.672;2022-10-16T01:42:34;5.10;;;4.03;;
58372;SDS011;44177;43.356;27.672;2022-10-16T01:45:03;5.30;;;4.00;;
58372;SDS011;44177;43.356;27.672;2022-10-16T01:47:31;4.13;;;3.72;;
58372;SDS011;44177;43.356;27.672;2022-10-16T01:49:58;4.15;;;3.75;;
58372;SDS011;44177;43.356;27.672;2022-10-16T01:52:26;4.13;;;3.70;;
58372;SDS011;44177;43.356;27.672;2022-10-16T01:54:54;4.70;;;3.95;;
58372;SDS011;44177;43.356;27.672;2022-10-16T01:57:21;3.97;;;3.58;;
58372;SDS011;44177;43.356;27.672;2022-10-16T01:59:51;3.85;;;3.45;;
58372;SDS011;44177;43.356;27.672;2022-10-16T02:02:21;4.50;;;3.25;;
58372;SDS011;44177;43.356;27.672;2022-10-16T02:04:58;4.22;;;3.63;;
58372;SDS011;44177;43.356;27.672;2022-10-16T02:07:43;4.30;;;3.67;;
58372;SDS011;44177;43.356;27.672;2022-10-16T02:10:09;4.55;;;3.50;;
58372;SDS011;44177;43.356;27.672;2022-10-16T02:12:36;4.32;;;3.80;;
58372;SDS011;44177;43.356;27.672;2022-10-16T02:15:06;4.88;;;3.40;;
58372;SDS011;44177;43.356;27.672;2022-10-16T02:17:32;6.43;;;3.65;;
58372;SDS011;44177;43.356;27.672;2022-10-16T02:19:57;5.03;;;3.35;;
58372;SDS011;44177;43.356;27.672;2022-10-16T02:22:26;3.55;;;3.03;;
58372;SDS011;44177;43.356;27.672;2022-10-16T02:25:11;5.03;;;3.55;;
58372;SDS011;44177;43.356;27.672;2022-10-16T02:27:57;3.40;;;3.10;;
58372;SDS011;44177;43.356;27.672;2022-10-16T02:30:35;3.60;;;3.30;;
58372;SDS011;44177;43.356;27.672;2022-10-16T02:33:07;4.43;;;3.35;;
58372;SDS011;44177;43.356;27.672;2022-10-16T02:35:35;4.78;;;3.80;;
58372;SDS011;44177;43.356;27.672;2022-10-16T02:38:02;3.40;;;3.10;;
58372;SDS011;44177;43.356;27.672;2022-10-16T02:40:29;4.30;;;3.38;;
58372;SDS011;44177;43.356;27.672;2022-10-16T02:42:55;4.43;;;3.28;;
58372;SDS011;44177;43.356;27.672;2022-10-16T02:45:21;3.85;;;3.40;;
58372;SDS011;44177;43.356;27.672;2022-10-16T02:47:47;4.43;;;3.40;;
58372;SDS011;44177;43.356;27.672;2022-10-16T02:50:12;3.67;;;3.10;;
58372;SDS011;44177;43.356;27.672;2022-10-16T02:52:37;4.20;;;3.50;;
58372;SDS011;44177;43.356;27.672;2022-10-16T02:55:03;5.05;;;3.28;;
58372;SDS011;44177;43.356;27.672;2022-10-16T02:57:29;4.78;;;3.50;;
58372;SDS011;44177;43.356;27.672;2022-10-16T02:59:54;4.20;;;3.63;;
58372;SDS011;44177;43.356;27.672;2022-10-16T03:02:20;4.05;;;3.47;;
58372;SDS011;44177;43.356;27.672;2022-10-16T03:04:45;5.03;;;3.20;;
58372;SDS011;44177;43.356;27.672;2022-10-16T03:07:11;4.32;;;3.30;;
58372;SDS011;44177;43.356;27.672;2022-10-16T03:09:36;4.65;;;3.25;;
58372;SDS011;44177;43.356;27.672;2022-10-16T03:12:02;3.83;;;3.13;;
58372;SDS011;44177;43.356;27.672;2022-10-16T03:14:27;3.97;;;3.40;;
58372;SDS011;44177;43.356;27.672;2022-10-16T03:16:53;3.47;;;3.17;;
58372;SDS011;44177;43.356;27.672;2022-10-16T03:19:18;3.28;;;2.83;;
58372;SDS011;44177;43.356;27.672;2022-10-16T03:21:44;3.33;;;3.03;;
58372;SDS011;44177;43.356;27.672;2022-10-16T03:24:10;3.80;;;3.40;;
58372;SDS011;44177;43.356;27.672;2022-10-16T03:26:35;3.75;;;3.40;;
58372;SDS011;44177;43.356;27.672;2022-10-16T03:29:01;4.15;;;3.05;;
58372;SDS011;44177;43.356;27.672;2022-10-16T03:31:28;3.75;;;3.00;;
58372;SDS011;44177;43.356;27.672;2022-10-16T03:33:54;3.60;;;3.15;;
58372;SDS011;44177;43.356;27.672;2022-10-16T03:36:19;4.47;;;3.30;;
58372;SDS011;44177;43.356;27.672;2022-10-16T03:38:44;4.78;;;3.38;;
58372;SDS011;44177;43.356;27.672;2022-10-16T03:41:10;3.28;;;2.97;;
58372;SDS011;44177;43.356;27.672;2022-10-16T03:43:35;3.38;;;3.08;;
58372;SDS011;44177;43.356;27.672;2022-10-16T03:46:01;3.35;;;2.90;;
58372;SDS011;44177;43.356;27.672;2022-10-16T03:48:26;3.67;;;3.00;;
58372;SDS011;44177;43.356;27.672;2022-10-16T03:50:52;3.50;;;2.88;;
58372;SDS011;44177;43.356;27.672;2022-10-16T03:53:18;3.35;;;3.05;;
58372;SDS011;44177;43.356;27.672;2022-10-16T03:55:43;3.30;;;3.00;;
58372;SDS011;44177;43.356;27.672;2022-10-16T03:58:09;3.25;;;2.95;;
58372;SDS011;44177;43.356;27.672;2022-10-16T04:00:35;3.05;;;2.70;;
58372;SDS011;44177;43.356;27.672;2022-10-16T04:03:01;3.22;;;2.92;;
58372;SDS011;44177;43.356;27.672;2022-10-16T04:05:26;3.72;;;3.20;;
58372;SDS011;44177;43.356;27.672;2022-10-16T04:07:52;3.22;;;2.92;;
58372;SDS011;44177;43.356;27.672;2022-10-16T04:10:17;3.38;;;2.70;;
58372;SDS011;44177;43.356;27.672;2022-10-16T04:12:44;3.17;;;2.88;;
58372;SDS011;44177;43.356;27.672;2022-10-16T04:15:09;3.75;;;3.00;;
58372;SDS011;44177;43.356;27.672;2022-10-16T04:17:35;3.70;;;3.08;;
58372;SDS011;44177;43.356;27.672;2022-10-16T04:20:00;3.17;;;2.80;;
58372;SDS011;44177;43.356;27.672;2022-10-16T04:22:26;3.10;;;2.80;;
58372;SDS011;44177;43.356;27.672;2022-10-16T04:24:51;3.50;;;3.20;;
58372;SDS011;44177;43.356;27.672;2022-10-16T04:27:17;3.20;;;2.90;;
58372;SDS011;44177;43.356;27.672;2022-10-16T04:29:42;4.47;;;3.20;;
58372;SDS011;44177;43.356;27.672;2022-10-16T04:32:08;3.38;;;2.95;;
58372;SDS011;44177;43.356;27.672;2022-10-16T04:34:34;3.30;;;2.67;;
58372;SDS011;44177;43.356;27.672;2022-10-16T04:36:59;3.75;;;3.20;;
58372;SDS011;44177;43.356;27.672;2022-10-16T04:39:25;3.20;;;2.90;;
58372;SDS011;44177;43.356;27.672;2022-10-16T04:41:50;3.40;;;2.90;;
58372;SDS011;44177;43.356;27.672;2022-10-16T04:44:16;3.38;;;2.70;;
58372;SDS011;44177;43.356;27.672;2022-10-16T04:46:41;3.53;;;2.97;;
58372;SDS011;44177;43.356;27.672;2022-10-16T04:49:07;5.13;;;3.13;;
58372;SDS011;44177;43.356;27.672;2022-10-16T04:51:32;4.10;;;3.00;;
58372;SDS011;44177;43.356;27.672;2022-10-16T04:53:58;3.63;;;3.00;;
58372;SDS011;44177;43.356;27.672;2022-10-16T04:56:23;3.88;;;3.00;;
58372;SDS011;44177;43.356;27.672;2022-10-16T04:58:49;3.10;;;2.83;;
58372;SDS011;44177;43.356;27.672;2022-10-16T05:01:14;3.20;;;2.90;;
58372;SDS011;44177;43.356;27.672;2022-10-16T05:03:40;3.40;;;2.88;;
58372;SDS011;44177;43.356;27.672;2022-10-16T05:06:06;3.58;;;3.10;;
58372;SDS011;44177;43.356;27.672;2022-10-16T05:08:32;3.55;;;3.17;;
58372;SDS011;44177;43.356;27.672;2022-10-16T05:10:57;3.88;;;3.15;;
58372;SDS011;44177;43.356;27.672;2022-10-16T05:13:23;3.45;;;2.92;;
58372;SDS011;44177;43.356;27.672;2022-10-16T05:15:49;3.95;;;3.08;;
58372;SDS011;44177;43.356;27.672;2022-10-16T05:18:15;3.75;;;2.90;;
58372;SDS011;44177;43.356;27.672;2022-10-16T05:20:41;3.50;;;2.90;;
58372;SDS011;44177;43.356;27.672;2022-10-16T05:23:07;4.03;;;3.30;;
58372;SDS011;44177;43.356;27.672;2022-10-16T05:25:32;3.80;;;3.03;;
58372;SDS011;44177;43.356;27.672;2022-10-16T05:27:58;4.28;;;3.05;;
58372;SDS011;44177;43.356;27.672;2022-10-16T05:30:23;3.88;;;3.05;;
58372;SDS011;44177;43.356;27.672;2022-10-16T05:32:49;3.00;;;2.80;;
58372;SDS011;44177;43.356;27.672;2022-10-16T05:35:16;4.13;;;3.05;;
58372;SDS011;44177;43.356;27.672;2022-10-16T05:37:42;4.22;;;3.22;;
58372;SDS011;44177;43.356;27.672;2022-10-16T05:40:08;3.35;;;3.05;;
58372;SDS011;44177;43.356;27.672;2022-10-16T05:42:35;3.83;;;2.92;;
58372;SDS011;44177;43.356;27.672;2022-10-16T05:45:00;3.30;;;3.00;;
58372;SDS011;44177;43.356;27.672;2022-10-16T05:47:26;4.35;;;3.10;;
58372;SDS011;44177;43.356;27.672;2022-10-16T05:49:51;4.78;;;3.20;;
58372;SDS011;44177;43.356;27.672;2022-10-16T05:52:17;4.28;;;3.30;;
58372;SDS011;44177;43.356;27.672;2022-10-16T05:54:42;4.90;;;3.20;;
58372;SDS011;44177;43.356;27.672;2022-10-16T05:57:08;4.85;;;3.45;;
58372;SDS011;44177;43.356;27.672;2022-10-16T05:59:34;6.50;;;3.90;;
58372;SDS011;44177;43.356;27.672;2022-10-16T06:01:59;4.82;;;3.60;;
58372;SDS011;44177;43.356;27.672;2022-10-16T06:04:25;5.22;;;3.63;;
58372;SDS011;44177;43.356;27.672;2022-10-16T06:06:50;5.22;;;3.70;;
58372;SDS011;44177;43.356;27.672;2022-10-16T06:09:16;5.15;;;3.35;;
58372;SDS011;44177;43.356;27.672;2022-10-16T06:11:41;5.38;;;3.60;;
58372;SDS011;44177;43.356;27.672;2022-10-16T06:14:08;4.47;;;3.40;;
58372;SDS011;44177;43.356;27.672;2022-10-16T06:16:34;5.43;;;3.58;;
58372;SDS011;44177;43.356;27.672;2022-10-16T06:19:01;6.22;;;3.60;;
58372;SDS011;44177;43.356;27.672;2022-10-16T06:21:31;4.63;;;3.58;;
58372;SDS011;44177;43.356;27.672;2022-10-16T06:23:57;4.80;;;3.60;;
58372;SDS011;44177;43.356;27.672;2022-10-16T06:26:24;5.65;;;3.80;;
58372;SDS011;44177;43.356;27.672;2022-10-16T06:28:53;3.95;;;3.17;;
58372;SDS011;44177;43.356;27.672;2022-10-16T06:31:20;5.95;;;3.90;;
58372;SDS011;44177;43.356;27.672;2022-10-16T06:33:49;3.92;;;3.22;;
58372;SDS011;44177;43.356;27.672;2022-10-16T06:36:16;4.60;;;3.60;;
58372;SDS011;44177;43.356;27.672;2022-10-16T06:38:42;4.75;;;3.30;;
58372;SDS011;44177;43.356;27.672;2022-10-16T06:41:12;4.57;;;3.45;;
58372;SDS011;44177;43.356;27.672;2022-10-16T06:43:39;4.93;;;3.50;;
58372;SDS011;44177;43.356;27.672;2022-10-16T06:46:05;5.25;;;3.65;;
58372;SDS011;44177;43.356;27.672;2022-10-16T06:48:34;3.83;;;3.22;;
58372;SDS011;44177;43.356;27.672;2022-10-16T06:51:01;4.15;;;3.50;;
58372;SDS011;44177;43.356;27.672;2022-10-16T06:53:30;5.22;;;3.42;;
58372;SDS011;44177;43.356;27.672;2022-10-16T06:55:57;4.80;;;3.55;;
58372;SDS011;44177;43.356;27.672;2022-10-16T06:58:23;3.55;;;3.00;;
58372;SDS011;44177;43.356;27.672;2022-10-16T07:00:49;3.42;;;3.13;;
58372;SDS011;44177;43.356;27.672;2022-10-16T07:03:21;3.67;;;3.03;;
58372;SDS011;44177;43.356;27.672;2022-10-16T07:05:46;4.20;;;3.35;;
58372;SDS011;44177;43.356;27.672;2022-10-16T07:08:12;4.40;;;3.22;;
58372;SDS011;44177;43.356;27.672;2022-10-16T07:10:37;5.88;;;3.10;;
58372;SDS011;44177;43.356;27.672;2022-10-16T07:13:02;4.30;;;3.20;;
58372;SDS011;44177;43.356;27.672;2022-10-16T07:15:28;3.83;;;3.10;;
58372;SDS011;44177;43.356;27.672;2022-10-16T07:17:53;3.78;;;2.83;;
58372;SDS011;44177;43.356;27.672;2022-10-16T07:20:19;4.18;;;3.15;;
58372;SDS011;44177;43.356;27.672;2022-10-16T07:22:44;3.72;;;3.00;;
58372;SDS011;44177;43.356;27.672;2022-10-16T07:25:10;3.83;;;2.97;;
58372;SDS011;44177;43.356;27.672;2022-10-16T07:27:36;4.00;;;3.10;;
58372;SDS011;44177;43.356;27.672;2022-10-16T07:30:02;3.70;;;3.10;;
58372;SDS011;44177;43.356;27.672;2022-10-16T07:32:28;5.05;;;3.50;;
58372;SDS011;44177;43.356;27.672;2022-10-16T07:34:54;4.57;;;3.00;;
58372;SDS011;44177;43.356;27.672;2022-10-16T07:37:20;4.97;;;3.38;;
58372;SDS011;44177;43.356;27.672;2022-10-16T07:39:46;4.32;;;2.95;;
58372;SDS011;44177;43.356;27.672;2022-10-16T07:42:12;4.93;;;3.20;;
58372;SDS011;44177;43.356;27.672;2022-10-16T07:44:37;5.20;;;3.30;;
58372;SDS011;44177;43.356;27.672;2022-10-16T07:47:03;4.28;;;3.20;;
58372;SDS011;44177;43.356;27.672;2022-10-16T07:49:28;4.25;;;3.22;;
58372;SDS011;44177;43.356;27.672;2022-10-16T07:51:54;5.05;;;3.33;;
58372;SDS011;44177;43.356;27.672;2022-10-16T07:54:19;4.40;;;3.15;;
58372;SDS011;44177;43.356;27.672;2022-10-16T07:56:44;4.88;;;3.22;;
58372;SDS011;44177;43.356;27.672;2022-10-16T07:59:10;5.55;;;3.42;;
58372;SDS011;44177;43.356;27.672;2022-10-16T08:01:35;4.57;;;2.88;;
58372;SDS011;44177;43.356;27.672;2022-10-16T08:04:01;4.15;;;3.05;;
58372;SDS011;44177;43.356;27.672;2022-10-16T08:06:26;4.32;;;3.30;;
58372;SDS011;44177;43.356;27.672;2022-10-16T08:08:52;3.78;;;2.92;;
58372;SDS011;44177;43.356;27.672;2022-10-16T08:11:17;4.18;;;2.78;;
58372;SDS011;44177;43.356;27.672;2022-10-16T08:13:43;4.65;;;2.83;;
58372;SDS011;44177;43.356;27.672;2022-10-16T08:16:08;5.25;;;3.08;;
58372;SDS011;44177;43.356;27.672;2022-10-16T08:18:37;3.92;;;2.88;;
58372;SDS011;44177;43.356;27.672;2022-10-16T08:21:05;5.25;;;3.15;;
58372;SDS011;44177;43.356;27.672;2022-10-16T08:23:31;4.43;;;3.00;;
58372;SDS011;44177;43.356;27.672;2022-10-16T08:26:03;3.38;;;2.67;;
58372;SDS011;44177;43.356;27.672;2022-10-16T08:28:30;4.50;;;3.00;;
58372;SDS011;44177;43.356;27.672;2022-10-16T08:30:56;3.92;;;3.28;;
58372;SDS011;44177;43.356;27.672;2022-10-16T08:33:22;3.47;;;2.80;;
58372;SDS011;44177;43.356;27.672;2022-10-16T08:35:53;4.07;;;3.17;;
58372;SDS011;44177;43.356;27.672;2022-10-16T08:38:19;3.67;;;2.65;;
58372;SDS011;44177;43.356;27.672;2022-10-16T08:40:45;5.35;;;3.05;;
58372;SDS011;44177;43.356;27.672;2022-10-16T08:48:54;4.68;;;3.05;;
58372;SDS011;44177;43.356;27.672;2022-10-16T08:56:22;3.90;;;2.78;;
58372;SDS011;44177;43.356;27.672;2022-10-16T08:58:49;4.00;;;2.75;;
58372;SDS011;44177;43.356;27.672;2022-10-16T09:01:17;3.65;;;3.00;;
58372;SDS011;44177;43.356;27.672;2022-10-16T09:17:04;3.55;;;2.60;;
58372;SDS011;44177;43.356;27.672;2022-10-16T09:20:03;3.85;;;2.88;;
58372;SDS011;44177;43.356;27.672;2022-10-16T09:25:29;4.60;;;3.00;;
58372;SDS011;44177;43.356;27.672;2022-10-16T09:27:57;4.50;;;2.80;;
58372;SDS011;44177;43.356;27.672;2022-10-16T09:30:23;5.07;;;3.03;;
58372;SDS011;44177;43.356;27.672;2022-10-16T09:32:52;2.78;;;2.40;;
58372;SDS011;44177;43.356;27.672;2022-10-16T09:35:20;3.17;;;2.47;;
58372;SDS011;44177;43.356;27.672;2022-10-16T09:37:48;3.63;;;2.38;;
58372;SDS011;44177;43.356;27.672;2022-10-16T09:40:32;4.07;;;2.83;;
58372;SDS011;44177;43.356;27.672;2022-10-16T09:43:06;3.47;;;2.72;;
58372;SDS011;44177;43.356;27.672;2022-10-16T09:46:01;3.83;;;2.70;;
58372;SDS011;44177;43.356;27.672;2022-10-16T09:48:44;3.70;;;2.70;;
58372;SDS011;44177;43.356;27.672;2022-10-16T09:51:18;3.60;;;2.70;;
58372;SDS011;44177;43.356;27.672;2022-10-16T09:53:47;4.47;;;2.80;;
58372;SDS011;44177;43.356;27.672;2022-10-16T09:56:20;3.67;;;2.75;;
58372;SDS011;44177;43.356;27.672;2022-10-16T09:58:49;4.03;;;2.70;;
58372;SDS011;44177;43.356;27.672;2022-10-16T10:01:19;2.97;;;2.50;;
58372;SDS011;44177;43.356;27.672;2022-10-16T10:03:46;3.85;;;2.55;;
58372;SDS011;44177;43.356;27.672;2022-10-16T10:08:56;3.22;;;2.22;;
58372;SDS011;44177;43.356;27.672;2022-10-16T10:14:13;3.10;;;2.50;;
58372;SDS011;44177;43.356;27.672;2022-10-16T10:19:38;3.53;;;2.45;;
58372;SDS011;44177;43.356;27.672;2022-10-16T10:22:16;3.28;;;2.10;;
58372;SDS011;44177;43.356;27.672;2022-10-16T10:24:54;3.13;;;2.30;;
58372;SDS011;44177;43.356;27.672;2022-10-16T10:27:20;3.83;;;2.40;;
58372;SDS011;44177;43.356;27.672;2022-10-16T10:32:20;3.00;;;2.45;;
58372;SDS011;44177;43.356;27.672;2022-10-16T10:38:06;3.28;;;2.30;;
58372;SDS011;44177;43.356;27.672;2022-10-16T10:40:55;3.00;;;2.35;;
58372;SDS011;44177;43.356;27.672;2022-10-16T10:46:42;3.17;;;2.10;;
58372;SDS011;44177;43.356;27.672;2022-10-16T10:49:28;3.28;;;2.17;;
58372;SDS011;44177;43.356;27.672;2022-10-16T10:52:10;3.63;;;2.42;;
58372;SDS011;44177;43.356;27.672;2022-10-16T10:57:41;3.42;;;2.22;;
58372;SDS011;44177;43.356;27.672;2022-10-16T11:06:10;3.47;;;2.05;;
58372;SDS011;44177;43.356;27.672;2022-10-16T11:08:49;2.67;;;1.83;;
58372;SDS011;44177;43.356;27.672;2022-10-16T11:11:38;4.07;;;2.25;;
58372;SDS011;44177;43.356;27.672;2022-10-16T11:24:53;2.38;;;2.00;;
58372;SDS011;44177;43.356;27.672;2022-10-16T11:27:34;2.70;;;2.05;;
58372;SDS011;44177;43.356;27.672;2022-10-16T11:30:03;2.85;;;2.10;;
58372;SDS011;44177;43.356;27.672;2022-10-16T11:32:49;2.85;;;1.92;;
58372;SDS011;44177;43.356;27.672;2022-10-16T11:36:17;4.40;;;2.15;;
58372;SDS011;44177;43.356;27.672;2022-10-16T11:38:37;3.85;;;1.90;;
58372;SDS011;44177;43.356;27.672;2022-10-16T11:41:15;2.13;;;1.70;;
58372;SDS011;44177;43.356;27.672;2022-10-16T11:50:09;2.60;;;1.80;;
58372;SDS011;44177;43.356;27.672;2022-10-16T11:52:44;2.10;;;1.67;;
58372;SDS011;44177;43.356;27.672;2022-10-16T11:57:39;2.10;;;1.70;;
58372;SDS011;44177;43.356;27.672;2022-10-16T12:00:14;2.33;;;1.80;;
58372;SDS011;44177;43.356;27.672;2022-10-16T12:08:01;1.95;;;1.60;;
58372;SDS011;44177;43.356;27.672;2022-10-16T12:10:34;1.92;;;1.70;;
58372;SDS011;44177;43.356;27.672;2022-10-16T12:18:36;2.65;;;1.83;;
58372;SDS011;44177;43.356;27.672;2022-10-16T12:21:02;2.55;;;1.73;;
58372;SDS011;44177;43.356;27.672;2022-10-16T12:23:32;2.17;;;1.70;;
58372;SDS011;44177;43.356;27.672;2022-10-16T12:26:02;2.53;;;1.60;;
58372;SDS011;44177;43.356;27.672;2022-10-16T12:28:30;1.77;;;1.50;;
58372;SDS011;44177;43.356;27.672;2022-10-16T12:31:03;2.15;;;1.70;;
58372;SDS011;44177;43.356;27.672;2022-10-16T12:36:01;2.13;;;1.33;;
58372;SDS011;44177;43.356;27.672;2022-10-16T12:38:38;2.05;;;1.75;;
58372;SDS011;44177;43.356;27.672;2022-10-16T12:41:12;2.30;;;1.83;;
58372;SDS011;44177;43.356;27.672;2022-10-16T12:48:38;1.95;;;1.60;;
58372;SDS011;44177;43.356;27.672;2022-10-16T12:51:22;1.65;;;1.52;;
58372;SDS011;44177;43.356;27.672;2022-10-16T12:59:25;1.90;;;1.65;;
58372;SDS011;44177;43.356;27.672;2022-10-16T13:02:02;1.92;;;1.67;;
58372;SDS011;44177;43.356;27.672;2022-10-16T13:28:48;2.15;;;1.83;;
58372;SDS011;44177;43.356;27.672;2022-10-16T13:31:20;1.80;;;1.40;;
58372;SDS011;44177;43.356;27.672;2022-10-16T13:33:50;1.75;;;1.40;;
58372;SDS011;44177;43.356;27.672;2022-10-16T13:36:21;2.05;;;1.65;;
58372;SDS011;44177;43.356;27.672;2022-10-16T13:42:03;2.22;;;1.40;;
58372;SDS011;44177;43.356;27.672;2022-10-16T13:44:53;2.63;;;1.52;;
58372;SDS011;44177;43.356;27.672;2022-10-16T13:47:20;1.98;;;1.73;;
58372;SDS011;44177;43.356;27.672;2022-10-16T13:49:47;1.35;;;1.25;;
58372;SDS011;44177;43.356;27.672;2022-10-16T13:52:23;2.20;;;1.58;;
58372;SDS011;44177;43.356;27.672;2022-10-16T13:54:49;1.30;;;1.20;;
58372;SDS011;44177;43.356;27.672;2022-10-16T13:57:15;2.10;;;1.50;;
58372;SDS011;44177;43.356;27.672;2022-10-16T13:59:41;1.73;;;1.40;;
58372;SDS011;44177;43.356;27.672;2022-10-16T14:04:51;1.37;;;1.27;;
58372;SDS011;44177;43.356;27.672;2022-10-16T14:07:23;2.78;;;1.40;;
58372;SDS011;44177;43.356;27.672;2022-10-16T14:09:51;1.48;;;1.35;;
58372;SDS011;44177;43.356;27.672;2022-10-16T14:12:18;1.95;;;1.60;;
58372;SDS011;44177;43.356;27.672;2022-10-16T14:14:46;1.73;;;1.58;;
58372;SDS011;44177;43.356;27.672;2022-10-16T14:17:18;1.60;;;1.50;;
58372;SDS011;44177;43.356;27.672;2022-10-16T14:19:48;1.75;;;1.23;;
58372;SDS011;44177;43.356;27.672;2022-10-16T14:22:32;2.05;;;1.50;;
58372;SDS011;44177;43.356;27.672;2022-10-16T14:27:44;1.63;;;1.42;;
58372;SDS011;44177;43.356;27.672;2022-10-16T14:30:12;1.40;;;1.30;;
58372;SDS011;44177;43.356;27.672;2022-10-16T14:32:40;1.50;;;1.40;;
58372;SDS011;44177;43.356;27.672;2022-10-16T14:35:56;1.77;;;1.40;;
58372;SDS011;44177;43.356;27.672;2022-10-16T14:38:01;1.40;;;1.30;;
58372;SDS011;44177;43.356;27.672;2022-10-16T14:40:29;2.05;;;1.40;;
58372;SDS011;44177;43.356;27.672;2022-10-16T14:42:57;1.70;;;1.60;;
58372;SDS011;44177;43.356;27.672;2022-10-16T14:45:24;1.70;;;1.35;;
58372;SDS011;44177;43.356;27.672;2022-10-16T14:47:54;1.58;;;1.20;;
58372;SDS011;44177;43.356;27.672;2022-10-16T14:50:23;1.65;;;1.55;;
58372;SDS011;44177;43.356;27.672;2022-10-16T14:52:49;1.65;;;1.35;;
58372;SDS011;44177;43.356;27.672;2022-10-16T14:55:15;1.27;;;1.17;;
58372;SDS011;44177;43.356;27.672;2022-10-16T14:57:42;1.90;;;1.30;;
58372;SDS011;44177;43.356;27.672;2022-10-16T15:00:10;1.65;;;1.30;;
58372;SDS011;44177;43.356;27.672;2022-10-16T15:02:43;1.88;;;1.50;;
58372;SDS011;44177;43.356;27.672;2022-10-16T15:05:15;1.58;;;1.20;;
58372;SDS011;44177;43.356;27.672;2022-10-16T15:07:45;2.03;;;1.35;;
58372;SDS011;44177;43.356;27.672;2022-10-16T15:10:12;1.40;;;1.30;;
58372;SDS011;44177;43.356;27.672;2022-10-16T15:12:38;2.03;;;1.30;;
58372;SDS011;44177;43.356;27.672;2022-10-16T15:17:47;2.15;;;1.30;;
58372;SDS011;44177;43.356;27.672;2022-10-16T15:20:13;1.27;;;1.17;;
58372;SDS011;44177;43.356;27.672;2022-10-16T15:22:39;2.00;;;1.40;;
58372;SDS011;44177;43.356;27.672;2022-10-16T15:27:51;1.92;;;1.33;;
58372;SDS011;44177;43.356;27.672;2022-10-16T15:30:16;1.30;;;1.20;;
58372;SDS011;44177;43.356;27.672;2022-10-16T15:32:42;1.45;;;1.20;;
58372;SDS011;44177;43.356;27.672;2022-10-16T15:35:10;1.40;;;1.30;;
58372;SDS011;44177;43.356;27.672;2022-10-16T15:37:36;1.70;;;1.40;;
58372;SDS011;44177;43.356;27.672;2022-10-16T15:40:01;1.85;;;1.42;;
58372;SDS011;44177;43.356;27.672;2022-10-16T15:42:27;1.80;;;1.60;;
58372;SDS011;44177;43.356;27.672;2022-10-16T15:44:53;1.55;;;1.30;;
58372;SDS011;44177;43.356;27.672;2022-10-16T15:47:18;2.45;;;1.45;;
58372;SDS011;44177;43.356;27.672;2022-10-16T15:49:44;1.38;;;1.27;;
58372;SDS011;44177;43.356;27.672;2022-10-16T15:52:09;1.17;;;1.08;;
58372;SDS011;44177;43.356;27.672;2022-10-16T15:54:34;1.50;;;1.40;;
58372;SDS011;44177;43.356;27.672;2022-10-16T15:57:00;2.15;;;1.30;;
58372;SDS011;44177;43.356;27.672;2022-10-16T15:59:25;1.50;;;1.40;;
58372;SDS011;44177;43.356;27.672;2022-10-16T16:01:51;1.52;;;1.30;;
58372;SDS011;44177;43.356;27.672;2022-10-16T16:04:16;2.28;;;1.20;;
58372;SDS011;44177;43.356;27.672;2022-10-16T16:06:42;1.65;;;1.50;;
58372;SDS011;44177;43.356;27.672;2022-10-16T16:09:10;1.63;;;1.35;;
58372;SDS011;44177;43.356;27.672;2022-10-16T16:11:37;1.30;;;1.20;;
58372;SDS011;44177;43.356;27.672;2022-10-16T16:14:06;1.92;;;1.50;;
58372;SDS011;44177;43.356;27.672;2022-10-16T16:16:32;1.75;;;1.45;;
58372;SDS011;44177;43.356;27.672;2022-10-16T16:19:03;1.52;;;1.30;;
58372;SDS011;44177;43.356;27.672;2022-10-16T16:21:30;1.77;;;1.35;;
58372;SDS011;44177;43.356;27.672;2022-10-16T16:23:55;2.05;;;1.40;;
58372;SDS011;44177;43.356;27.672;2022-10-16T16:26:25;1.67;;;1.27;;
58372;SDS011;44177;43.356;27.672;2022-10-16T16:29:00;3.03;;;1.55;;
58372;SDS011;44177;43.356;27.672;2022-10-16T16:31:27;2.67;;;1.60;;
58372;SDS011;44177;43.356;27.672;2022-10-16T16:33:53;1.92;;;1.65;;
58372;SDS011;44177;43.356;27.672;2022-10-16T16:36:19;1.80;;;1.60;;
58372;SDS011;44177;43.356;27.672;2022-10-16T16:38:45;2.00;;;1.40;;
58372;SDS011;44177;43.356;27.672;2022-10-16T16:41:21;2.95;;;1.40;;
58372;SDS011;44177;43.356;27.672;2022-10-16T16:43:48;1.95;;;1.73;;
58372;SDS011;44177;43.356;27.672;2022-10-16T16:46:16;2.13;;;1.70;;
58372;SDS011;44177;43.356;27.672;2022-10-16T16:48:41;2.08;;;1.70;;
58372;SDS011;44177;43.356;27.672;2022-10-16T16:51:08;1.98;;;1.77;;
58372;SDS011;44177;43.356;27.672;2022-10-16T16:56:12;2.65;;;1.98;;
58372;SDS011;44177;43.356;27.672;2022-10-16T16:58:38;3.33;;;1.90;;
58372;SDS011;44177;43.356;27.672;2022-10-16T17:01:05;2.80;;;1.90;;
58372;SDS011;44177;43.356;27.672;2022-10-16T17:03:31;2.33;;;2.00;;
58372;SDS011;44177;43.356;27.672;2022-10-16T17:05:59;2.42;;;2.03;;
58372;SDS011;44177;43.356;27.672;2022-10-16T17:08:27;2.00;;;1.80;;
58372;SDS011;44177;43.356;27.672;2022-10-16T17:10:53;2.83;;;2.05;;
58372;SDS011;44177;43.356;27.672;2022-10-16T17:13:23;2.90;;;2.30;;
58372;SDS011;44177;43.356;27.672;2022-10-16T17:15:51;3.30;;;2.58;;
58372;SDS011;44177;43.356;27.672;2022-10-16T17:18:18;3.50;;;2.28;;
58372;SDS011;44177;43.356;27.672;2022-10-16T17:20:45;2.75;;;2.35;;